Time;durP1;ratioP1;P1;durP2;ratioP2;P2;SDS_P1;SDS_P2;PMS_P1;PMS_P2;Temp;Humidity;BMP_temperature;BMP_pressure;BME280_temperature;BME280_humidity;BME280_pressure;Samples;Min_cycle;Max_cycle;Signal;HPM_P1;HPM_P2
2023/09/29 00:01:32;;;;;;;15.55;3.97;;;;;;;;;;5007983;28;99950;-73
2023/09/29 00:03:59;;;;;;;19.42;4.63;;;;;;;;;;5001616;28;99243;-71
2023/09/29 00:06:26;;;;;;;10.65;3.53;;;;;;;;;;4997012;28;100879;-73
2023/09/29 00:08:52;;;;;;;18.83;4.68;;;;;;;;;;5007021;28;100176;-72
2023/09/29 00:11:19;;;;;;;15.30;3.92;;;;;;;;;;5003669;28;99075;-72
2023/09/29 00:13:45;;;;;;;13.77;4.28;;;;;;;;;;4994264;28;100559;-72
2023/09/29 00:16:12;;;;;;;15.20;4.15;;;;;;;;;;4994266;28;100599;-71
2023/09/29 00:18:38;;;;;;;16.90;4.07;;;;;;;;;;4994616;28;99470;-71
2023/09/29 00:21:06;;;;;;;10.70;3.38;;;;;;;;;;4998573;28;99556;-71
2023/09/29 00:23:32;;;;;;;14.35;3.88;;;;;;;;;;4998248;28;99066;-71
2023/09/29 00:25:59;;;;;;;15.88;3.75;;;;;;;;;;4995255;28;99575;-72
2023/09/29 00:28:25;;;;;;;13.02;3.67;;;;;;;;;;4994681;28;99888;-70
2023/09/29 00:30:52;;;;;;;11.35;3.88;;;;;;;;;;5004941;28;99610;-70
2023/09/29 00:33:20;;;;;;;12.52;3.58;;;;;;;;;;5005004;28;99210;-71
2023/09/29 00:35:47;;;;;;;12.68;4.13;;;;;;;;;;4996107;28;100489;-72
2023/09/29 00:38:14;;;;;;;14.07;3.63;;;;;;;;;;5004197;28;100787;-72
2023/09/29 00:40:40;;;;;;;11.82;3.67;;;;;;;;;;5007315;28;99526;-72
2023/09/29 00:43:08;;;;;;;17.08;4.22;;;;;;;;;;4999078;28;100746;-72
2023/09/29 00:45:35;;;;;;;9.30;4.03;;;;;;;;;;4992894;28;99199;-71
2023/09/29 00:48:07;;;;;;;12.35;3.08;;;;;;;;;;4999929;28;99896;-71
2023/09/29 00:50:35;;;;;;;11.63;3.50;;;;;;;;;;5006234;28;98787;-72
2023/09/29 00:53:11;;;;;;;20.80;3.60;;;;;;;;;;5006309;28;99230;-72
2023/09/29 00:55:40;;;;;;;14.32;3.35;;;;;;;;;;5005040;28;99799;-71
2023/09/29 00:58:06;;;;;;;10.90;3.58;;;;;;;;;;4999936;28;99411;-71
2023/09/29 01:00:36;;;;;;;12.60;3.58;;;;;;;;;;4994142;28;99580;-71
2023/09/29 01:03:09;;;;;;;12.63;3.97;;;;;;;;;;4987305;28;100064;-72
2023/09/29 01:05:38;;;;;;;7.85;3.10;;;;;;;;;;4994504;28;98784;-72
2023/09/29 01:08:08;;;;;;;14.30;4.07;;;;;;;;;;4998483;28;99135;-72
2023/09/29 01:10:36;;;;;;;10.63;3.30;;;;;;;;;;4991416;28;99414;-71
2023/09/29 01:13:03;;;;;;;6.47;3.65;;;;;;;;;;4991676;28;99896;-71
2023/09/29 01:15:31;;;;;;;8.90;3.28;;;;;;;;;;4990114;28;100580;-71
2023/09/29 01:17:58;;;;;;;18.05;3.63;;;;;;;;;;4990036;28;100824;-71
2023/09/29 01:20:29;;;;;;;12.52;4.13;;;;;;;;;;4990177;28;99965;-72
2023/09/29 01:23:00;;;;;;;18.08;3.85;;;;;;;;;;4997200;28;101606;-71
2023/09/29 01:25:26;;;;;;;13.00;3.50;;;;;;;;;;4994656;28;99789;-72
2023/09/29 01:27:54;;;;;;;15.48;3.33;;;;;;;;;;4997814;28;100724;-72
2023/09/29 01:30:21;;;;;;;16.92;3.40;;;;;;;;;;4987457;28;100369;-71
2023/09/29 01:32:48;;;;;;;10.40;2.80;;;;;;;;;;4990257;28;100666;-71
2023/09/29 01:35:16;;;;;;;12.07;3.35;;;;;;;;;;4988372;28;101891;-71
2023/09/29 01:37:49;;;;;;;11.02;3.38;;;;;;;;;;4995117;28;99916;-72
2023/09/29 01:40:16;;;;;;;9.85;3.33;;;;;;;;;;4992380;28;99985;-72
2023/09/29 01:42:43;;;;;;;10.15;3.95;;;;;;;;;;4992837;28;100801;-71
2023/09/29 01:45:14;;;;;;;16.00;4.35;;;;;;;;;;4986167;28;100072;-72
2023/09/29 01:47:43;;;;;;;10.85;3.28;;;;;;;;;;4992878;28;100720;-72
2023/09/29 01:50:11;;;;;;;6.35;3.58;;;;;;;;;;4987044;28;101502;-71
2023/09/29 01:52:38;;;;;;;10.43;3.65;;;;;;;;;;4986634;28;100361;-71
2023/09/29 01:55:07;;;;;;;16.83;4.30;;;;;;;;;;4992097;28;100840;-71
2023/09/29 01:57:34;;;;;;;14.80;4.45;;;;;;;;;;4989210;28;100052;-70
2023/09/29 02:00:00;;;;;;;9.05;3.85;;;;;;;;;;4995161;28;102118;-72
2023/09/29 02:02:27;;;;;;;6.72;2.97;;;;;;;;;;4989549;28;103827;-71
2023/09/29 02:04:54;;;;;;;10.63;4.05;;;;;;;;;;4988930;28;100324;-71
2023/09/29 02:07:20;;;;;;;7.25;3.10;;;;;;;;;;4987486;28;100423;-72
2023/09/29 02:09:46;;;;;;;10.48;3.85;;;;;;;;;;4993686;28;101536;-72
2023/09/29 02:12:14;;;;;;;10.02;3.38;;;;;;;;;;4989923;28;99458;-72
2023/09/29 02:14:41;;;;;;;10.10;3.22;;;;;;;;;;4991305;28;100713;-71
2023/09/29 02:17:08;;;;;;;13.07;3.30;;;;;;;;;;4990228;28;99006;-72
2023/09/29 02:19:35;;;;;;;15.80;4.68;;;;;;;;;;4991020;28;101760;-72
2023/09/29 02:22:03;;;;;;;9.88;3.33;;;;;;;;;;4985444;28;100567;-71
2023/09/29 02:24:30;;;;;;;11.80;4.03;;;;;;;;;;4993223;28;101922;-71
2023/09/29 02:26:56;;;;;;;8.98;4.30;;;;;;;;;;4985528;28;99774;-71
2023/09/29 02:29:23;;;;;;;8.80;3.30;;;;;;;;;;4991715;28;101579;-72
2023/09/29 02:31:49;;;;;;;15.75;3.88;;;;;;;;;;4989358;28;100416;-71
2023/09/29 02:34:16;;;;;;;15.38;4.05;;;;;;;;;;4995794;28;101684;-70
2023/09/29 02:36:43;;;;;;;14.75;4.20;;;;;;;;;;4989872;28;100196;-71
2023/09/29 02:39:10;;;;;;;10.00;3.50;;;;;;;;;;4992609;28;100705;-71
2023/09/29 02:41:38;;;;;;;17.73;3.67;;;;;;;;;;4989281;28;100620;-72
2023/09/29 02:44:07;;;;;;;11.60;3.30;;;;;;;;;;4990736;28;100435;-73
2023/09/29 02:46:33;;;;;;;18.10;4.43;;;;;;;;;;4989663;28;99633;-72
2023/09/29 02:49:00;;;;;;;8.63;3.85;;;;;;;;;;4992127;28;100571;-71
2023/09/29 02:51:26;;;;;;;11.82;3.72;;;;;;;;;;4992514;28;98335;-72
2023/09/29 02:53:54;;;;;;;6.18;3.10;;;;;;;;;;4994069;28;100890;-72
2023/09/29 02:56:23;;;;;;;16.67;3.97;;;;;;;;;;4989179;28;100231;-71
2023/09/29 02:58:52;;;;;;;10.73;4.10;;;;;;;;;;4993798;28;101184;-71
2023/09/29 03:01:19;;;;;;;10.35;3.95;;;;;;;;;;4984723;28;99943;-72
2023/09/29 03:03:47;;;;;;;8.82;3.85;;;;;;;;;;4989542;28;100866;-72
2023/09/29 03:06:23;;;;;;;15.80;3.97;;;;;;;;;;4991385;28;100368;-72
2023/09/29 03:08:54;;;;;;;10.02;3.80;;;;;;;;;;4989157;28;100209;-71
2023/09/29 03:11:21;;;;;;;10.70;3.97;;;;;;;;;;4990719;28;100789;-71
2023/09/29 03:13:48;;;;;;;9.77;3.28;;;;;;;;;;4990238;28;99405;-73
2023/09/29 03:16:14;;;;;;;13.13;4.93;;;;;;;;;;4996001;28;99507;-71
2023/09/29 03:18:41;;;;;;;12.32;4.05;;;;;;;;;;4989750;28;100186;-71
2023/09/29 03:21:09;;;;;;;11.55;3.42;;;;;;;;;;5001380;28;100619;-71
2023/09/29 03:23:36;;;;;;;8.57;3.63;;;;;;;;;;4990328;28;101116;-71
2023/09/29 03:26:04;;;;;;;8.63;2.97;;;;;;;;;;4986187;28;100305;-71
2023/09/29 03:28:31;;;;;;;12.05;4.30;;;;;;;;;;5001305;28;101660;-71
2023/09/29 03:31:00;;;;;;;9.10;3.50;;;;;;;;;;4989268;28;100806;-71
2023/09/29 03:33:27;;;;;;;12.20;3.35;;;;;;;;;;4987330;28;100265;-72
2023/09/29 03:35:56;;;;;;;7.38;3.50;;;;;;;;;;4987550;28;100475;-72
2023/09/29 03:38:25;;;;;;;10.48;3.47;;;;;;;;;;4990061;28;101146;-70
2023/09/29 03:40:52;;;;;;;11.93;3.30;;;;;;;;;;4987687;28;101263;-71
2023/09/29 03:43:21;;;;;;;6.65;3.78;;;;;;;;;;4984407;28;100447;-71
2023/09/29 03:45:49;;;;;;;4.88;2.78;;;;;;;;;;4985245;28;100037;-71
2023/09/29 03:48:16;;;;;;;4.28;3.08;;;;;;;;;;4991247;28;101080;-71
2023/09/29 03:50:43;;;;;;;10.25;3.42;;;;;;;;;;4990272;28;100611;-72
2023/09/29 03:53:10;;;;;;;8.85;3.42;;;;;;;;;;4989962;28;99742;-71
2023/09/29 03:55:36;;;;;;;4.82;3.28;;;;;;;;;;4992320;28;100108;-72
2023/09/29 03:58:03;;;;;;;10.65;4.00;;;;;;;;;;4989683;28;99903;-72
2023/09/29 04:00:30;;;;;;;5.75;3.47;;;;;;;;;;4992902;28;100990;-72
2023/09/29 04:02:57;;;;;;;7.25;3.70;;;;;;;;;;4988665;28;100408;-71
2023/09/29 04:05:24;;;;;;;9.02;3.50;;;;;;;;;;4987485;28;100513;-72
2023/09/29 04:07:50;;;;;;;15.23;3.28;;;;;;;;;;4993601;28;99969;-72
2023/09/29 04:10:18;;;;;;;5.38;2.95;;;;;;;;;;4985374;28;100132;-72
2023/09/29 04:12:47;;;;;;;8.55;3.25;;;;;;;;;;4989253;28;102357;-71
2023/09/29 04:15:14;;;;;;;5.80;3.28;;;;;;;;;;4985866;28;101860;-71
2023/09/29 04:17:40;;;;;;;9.23;3.17;;;;;;;;;;4986644;28;100336;-72
2023/09/29 04:20:07;;;;;;;11.15;3.63;;;;;;;;;;4988987;28;99609;-71
2023/09/29 04:22:34;;;;;;;6.68;3.20;;;;;;;;;;4987354;28;99556;-72
2023/09/29 04:25:01;;;;;;;7.20;3.30;;;;;;;;;;4985381;28;100425;-72
2023/09/29 04:27:28;;;;;;;9.07;3.45;;;;;;;;;;4988730;28;100270;-71
2023/09/29 04:29:55;;;;;;;9.98;2.95;;;;;;;;;;4989827;28;102849;-71
2023/09/29 04:32:21;;;;;;;8.48;3.40;;;;;;;;;;4990019;28;100426;-71
2023/09/29 04:34:48;;;;;;;10.10;3.38;;;;;;;;;;4988652;28;101654;-71
2023/09/29 04:37:15;;;;;;;6.50;2.85;;;;;;;;;;4992305;28;100757;-71
2023/09/29 04:39:41;;;;;;;4.65;2.70;;;;;;;;;;4990972;28;100334;-72
2023/09/29 04:42:08;;;;;;;6.47;3.42;;;;;;;;;;4996791;28;101294;-71
2023/09/29 04:44:35;;;;;;;7.70;3.15;;;;;;;;;;4997879;28;100668;-73
2023/09/29 04:47:01;;;;;;;13.43;3.03;;;;;;;;;;5007029;28;99826;-71
2023/09/29 04:49:28;;;;;;;8.38;3.00;;;;;;;;;;5006126;28;98873;-71
2023/09/29 04:51:54;;;;;;;5.38;2.80;;;;;;;;;;5005730;28;100378;-72
2023/09/29 04:54:21;;;;;;;6.07;2.75;;;;;;;;;;5005454;28;101251;-72
2023/09/29 04:56:47;;;;;;;6.10;3.03;;;;;;;;;;5006188;28;99169;-73
2023/09/29 04:59:14;;;;;;;5.40;2.53;;;;;;;;;;5006099;28;100129;-71
2023/09/29 05:01:40;;;;;;;3.83;2.38;;;;;;;;;;5003831;28;99938;-73
2023/09/29 05:04:07;;;;;;;9.80;2.55;;;;;;;;;;5009699;28;101357;-72
2023/09/29 05:06:33;;;;;;;7.45;2.97;;;;;;;;;;5005186;28;100758;-72
2023/09/29 05:09:00;;;;;;;8.40;2.88;;;;;;;;;;5004757;28;99080;-73
2023/09/29 05:11:27;;;;;;;7.95;3.05;;;;;;;;;;5005555;28;100796;-73
2023/09/29 05:13:57;;;;;;;4.13;3.15;;;;;;;;;;5006145;28;99870;-72
2023/09/29 05:16:24;;;;;;;6.05;3.08;;;;;;;;;;5004570;28;99923;-73
2023/09/29 05:18:53;;;;;;;6.55;2.60;;;;;;;;;;5006580;28;99649;-73
2023/09/29 05:21:20;;;;;;;7.35;2.80;;;;;;;;;;5005271;28;99016;-73
2023/09/29 05:23:46;;;;;;;3.92;2.40;;;;;;;;;;5005510;28;99027;-72
2023/09/29 05:26:13;;;;;;;9.32;3.17;;;;;;;;;;5007608;28;100553;-71
2023/09/29 05:28:39;;;;;;;5.88;3.85;;;;;;;;;;5005630;28;100627;-71
2023/09/29 05:31:06;;;;;;;6.70;2.67;;;;;;;;;;5004795;28;99505;-72
2023/09/29 05:33:33;;;;;;;6.90;2.58;;;;;;;;;;5005483;28;99911;-72
2023/09/29 05:36:00;;;;;;;7.85;3.47;;;;;;;;;;5005494;28;100146;-71
2023/09/29 05:38:27;;;;;;;5.68;2.72;;;;;;;;;;5003895;28;99688;-72
2023/09/29 05:40:54;;;;;;;4.10;2.90;;;;;;;;;;5005695;28;98921;-72
2023/09/29 05:43:20;;;;;;;4.35;2.53;;;;;;;;;;5005345;28;100047;-72
2023/09/29 05:45:47;;;;;;;5.53;3.42;;;;;;;;;;5005042;28;100677;-73
2023/09/29 05:48:14;;;;;;;9.23;3.38;;;;;;;;;;5008256;28;99175;-72
2023/09/29 05:50:41;;;;;;;6.45;2.70;;;;;;;;;;5003663;28;100580;-72
2023/09/29 05:53:07;;;;;;;4.35;2.97;;;;;;;;;;5005262;28;99937;-71
2023/09/29 05:55:37;;;;;;;6.85;3.10;;;;;;;;;;5005346;28;99256;-71
2023/09/29 05:58:03;;;;;;;11.27;3.20;;;;;;;;;;5004393;28;100169;-73
2023/09/29 06:00:30;;;;;;;9.93;2.88;;;;;;;;;;5004663;28;100118;-72
2023/09/29 06:02:59;;;;;;;3.72;2.83;;;;;;;;;;5004934;28;99469;-72
2023/09/29 06:05:27;;;;;;;5.85;2.80;;;;;;;;;;5003453;28;99475;-72
2023/09/29 06:07:53;;;;;;;4.07;2.90;;;;;;;;;;5001464;28;99219;-73
2023/09/29 06:10:23;;;;;;;6.28;3.13;;;;;;;;;;5008500;28;99046;-70
2023/09/29 06:12:50;;;;;;;7.07;3.00;;;;;;;;;;5003722;28;98931;-71
2023/09/29 06:15:16;;;;;;;11.88;2.80;;;;;;;;;;5003903;28;99581;-71
2023/09/29 06:17:43;;;;;;;3.20;2.47;;;;;;;;;;5004593;28;100245;-71
2023/09/29 06:20:10;;;;;;;4.22;3.65;;;;;;;;;;5004434;28;98985;-71
2023/09/29 06:22:36;;;;;;;5.80;3.25;;;;;;;;;;5004610;28;99863;-72
2023/09/29 06:25:03;;;;;;;6.75;2.90;;;;;;;;;;5004716;28;100239;-72
2023/09/29 06:27:30;;;;;;;7.63;3.05;;;;;;;;;;5003075;28;99078;-72
2023/09/29 06:29:56;;;;;;;4.07;3.15;;;;;;;;;;5007850;28;99088;-73
2023/09/29 06:32:23;;;;;;;6.32;2.83;;;;;;;;;;5005175;28;99972;-72
2023/09/29 06:34:49;;;;;;;4.35;2.65;;;;;;;;;;5004100;28;99203;-73
2023/09/29 06:37:15;;;;;;;4.22;2.50;;;;;;;;;;5003723;28;100616;-72
2023/09/29 06:39:42;;;;;;;11.35;2.97;;;;;;;;;;5004124;28;101030;-72
2023/09/29 06:42:09;;;;;;;2.75;2.42;;;;;;;;;;5004929;28;101187;-71
2023/09/29 06:44:35;;;;;;;2.97;2.38;;;;;;;;;;5004690;28;99414;-73
2023/09/29 06:47:02;;;;;;;7.68;2.45;;;;;;;;;;5003678;28;99867;-75
2023/09/29 06:49:28;;;;;;;4.95;2.63;;;;;;;;;;5004096;28;99868;-74
2023/09/29 06:51:54;;;;;;;2.92;2.60;;;;;;;;;;5008433;28;99504;-74
2023/09/29 06:54:21;;;;;;;2.80;2.55;;;;;;;;;;5003365;28;100135;-73
2023/09/29 06:56:49;;;;;;;6.10;3.08;;;;;;;;;;5004564;28;98924;-74
2023/09/29 06:59:16;;;;;;;3.90;3.03;;;;;;;;;;5003641;28;99100;-72
2023/09/29 07:01:42;;;;;;;4.75;2.70;;;;;;;;;;5000535;28;98745;-72
2023/09/29 07:04:10;;;;;;;6.05;3.30;;;;;;;;;;5003549;28;101142;-72
2023/09/29 07:06:37;;;;;;;7.47;2.92;;;;;;;;;;5003500;28;99400;-72
2023/09/29 07:09:03;;;;;;;4.50;2.72;;;;;;;;;;5003698;28;99148;-73
2023/09/29 07:11:30;;;;;;;4.38;2.72;;;;;;;;;;5002183;28;99657;-72
2023/09/29 07:13:57;;;;;;;5.82;3.38;;;;;;;;;;4999106;28;99997;-72
2023/09/29 07:16:23;;;;;;;6.75;2.63;;;;;;;;;;5002272;28;101163;-72
2023/09/29 07:18:50;;;;;;;6.15;2.50;;;;;;;;;;4995759;28;100068;-72
2023/09/29 07:21:18;;;;;;;5.55;2.95;;;;;;;;;;5003191;28;99132;-72
2023/09/29 07:23:45;;;;;;;5.03;2.47;;;;;;;;;;5003159;28;99384;-72
2023/09/29 07:26:12;;;;;;;5.97;2.85;;;;;;;;;;4995777;28;100402;-72
2023/09/29 07:28:39;;;;;;;3.70;2.53;;;;;;;;;;5002891;28;99996;-73
2023/09/29 07:31:05;;;;;;;6.32;2.35;;;;;;;;;;5002659;28;100824;-73
2023/09/29 07:33:32;;;;;;;5.18;2.70;;;;;;;;;;5003060;28;99305;-72
2023/09/29 07:35:58;;;;;;;13.80;2.50;;;;;;;;;;5009207;28;99106;-72
2023/09/29 07:38:25;;;;;;;9.88;2.88;;;;;;;;;;5008355;28;99044;-75
2023/09/29 07:40:51;;;;;;;2.45;2.20;;;;;;;;;;5006522;28;99782;-74
2023/09/29 07:43:18;;;;;;;4.10;2.72;;;;;;;;;;5002424;28;99844;-73
2023/09/29 07:45:44;;;;;;;9.70;2.53;;;;;;;;;;5003734;28;99876;-74
2023/09/29 07:48:15;;;;;;;2.83;2.20;;;;;;;;;;5002428;28;99140;-74
2023/09/29 07:50:42;;;;;;;6.50;3.58;;;;;;;;;;5003147;28;99295;-72
2023/09/29 07:53:11;;;;;;;3.88;2.20;;;;;;;;;;5003635;27;99366;-72
2023/09/29 07:55:38;;;;;;;9.13;2.30;;;;;;;;;;5002464;28;100068;-72
2023/09/29 07:58:05;;;;;;;2.10;1.90;;;;;;;;;;5005365;28;99367;-72
2023/09/29 08:00:31;;;;;;;4.55;1.95;;;;;;;;;;5003260;28;99100;-73
2023/09/29 08:02:57;;;;;;;5.47;2.10;;;;;;;;;;5006726;28;99575;-72
2023/09/29 08:05:24;;;;;;;2.08;1.90;;;;;;;;;;5006621;28;98962;-73
2023/09/29 08:07:51;;;;;;;4.13;2.47;;;;;;;;;;5007663;28;100084;-73
2023/09/29 08:10:18;;;;;;;2.50;2.00;;;;;;;;;;5006842;28;98527;-72
2023/09/29 08:12:44;;;;;;;4.53;1.80;;;;;;;;;;5006254;28;99918;-73
2023/09/29 08:15:13;;;;;;;9.27;1.90;;;;;;;;;;5007319;28;99804;-73
2023/09/29 08:17:40;;;;;;;5.95;2.42;;;;;;;;;;5006639;28;100248;-72
2023/09/29 08:20:07;;;;;;;2.70;2.00;;;;;;;;;;5009696;28;98572;-72
2023/09/29 08:22:33;;;;;;;4.28;1.85;;;;;;;;;;5006869;28;99679;-72
2023/09/29 08:25:10;;;;;;;5.28;2.15;;;;;;;;;;5008007;28;99023;-72
2023/09/29 08:27:37;;;;;;;6.32;1.85;;;;;;;;;;5007157;28;100280;-73
2023/09/29 08:30:05;;;;;;;7.03;2.17;;;;;;;;;;5007015;28;99751;-73
2023/09/29 08:32:31;;;;;;;5.75;2.13;;;;;;;;;;5007778;28;99026;-73
2023/09/29 08:34:58;;;;;;;5.40;2.72;;;;;;;;;;5013213;28;98256;-73
2023/09/29 08:37:24;;;;;;;3.95;2.13;;;;;;;;;;5010851;28;99099;-73
2023/09/29 08:39:53;;;;;;;5.13;1.90;;;;;;;;;;5009630;28;100001;-74
2023/09/29 08:42:32;;;;;;;3.75;1.98;;;;;;;;;;5005656;28;101940;-73
2023/09/29 08:45:00;;;;;;;2.13;1.92;;;;;;;;;;5007370;28;99900;-72
2023/09/29 08:47:33;;;;;;;1.98;1.77;;;;;;;;;;5005525;28;99811;-73
2023/09/29 08:50:06;;;;;;;2.83;1.70;;;;;;;;;;5007344;28;99258;-72
2023/09/29 08:52:32;;;;;;;3.58;1.80;;;;;;;;;;5006129;28;99598;-72
2023/09/29 08:54:59;;;;;;;2.45;1.73;;;;;;;;;;5005989;28;100406;-72
2023/09/29 08:57:27;;;;;;;2.42;1.95;;;;;;;;;;5006286;28;100260;-72
2023/09/29 08:59:54;;;;;;;9.25;2.35;;;;;;;;;;5007408;28;99975;-73
2023/09/29 09:02:21;;;;;;;10.93;2.55;;;;;;;;;;5008940;28;99232;-73
2023/09/29 09:04:48;;;;;;;3.17;2.15;;;;;;;;;;4998870;28;99354;-73
2023/09/29 09:07:14;;;;;;;2.67;1.77;;;;;;;;;;5005858;28;99311;-72
2023/09/29 09:09:50;;;;;;;10.10;3.97;;;;;;;;;;5005576;28;100248;-72
2023/09/29 09:12:17;;;;;;;1.95;1.77;;;;;;;;;;5005586;28;100534;-70
2023/09/29 09:14:44;;;;;;;3.13;1.73;;;;;;;;;;5005917;28;99098;-72
2023/09/29 09:17:12;;;;;;;2.53;1.85;;;;;;;;;;5005280;28;99404;-73
2023/09/29 09:19:43;;;;;;;2.25;1.90;;;;;;;;;;5006387;28;98993;-73
2023/09/29 09:22:10;;;;;;;;;;;;;;;;;;4998718;28;98956;-72
2023/09/29 09:24:37;;;;;;;4.13;2.00;;;;;;;;;;5009058;28;129547;-73
2023/09/29 09:27:03;;;;;;;3.25;2.13;;;;;;;;;;5005450;28;98615;-74
2023/09/29 09:29:30;;;;;;;2.33;2.03;;;;;;;;;;5004941;28;99234;-72
2023/09/29 09:31:59;;;;;;;2.42;1.90;;;;;;;;;;5009281;28;100001;-73
2023/09/29 09:34:33;;;;;;;2.22;1.90;;;;;;;;;;5010147;28;100669;-73
2023/09/29 09:36:59;;;;;;;6.68;2.17;;;;;;;;;;5004321;28;99752;-73
2023/09/29 09:39:28;;;;;;;3.80;1.70;;;;;;;;;;5003043;28;100119;-73
2023/09/29 09:41:59;;;;;;;8.10;2.15;;;;;;;;;;5005912;28;99858;-74
2023/09/29 09:44:26;;;;;;;14.40;3.83;;;;;;;;;;5004361;28;101507;-71
2023/09/29 09:46:53;;;;;;;4.45;1.92;;;;;;;;;;5008502;28;100057;-71
2023/09/29 09:49:23;;;;;;;4.88;1.88;;;;;;;;;;5005360;28;98900;-71
2023/09/29 09:51:52;;;;;;;4.10;2.22;;;;;;;;;;5005019;28;99910;-71
2023/09/29 09:54:26;;;;;;;4.68;2.10;;;;;;;;;;5005008;28;100095;-72
2023/09/29 09:57:09;;;;;;;3.67;1.90;;;;;;;;;;5003718;28;100936;-72
2023/09/29 09:59:36;;;;;;;3.45;1.80;;;;;;;;;;5004333;28;100433;-70
2023/09/29 10:02:06;;;;;;;8.63;1.90;;;;;;;;;;5004703;28;99373;-70
2023/09/29 10:04:36;;;;;;;6.38;1.95;;;;;;;;;;5003060;28;99754;-70
2023/09/29 10:07:04;;;;;;;5.25;1.98;;;;;;;;;;4993580;28;100715;-71
2023/09/29 10:09:45;;;;;;;3.58;1.65;;;;;;;;;;4993735;28;101451;-70
2023/09/29 10:12:24;;;;;;;2.17;1.88;;;;;;;;;;4989701;28;99949;-70
2023/09/29 10:14:52;;;;;;;7.72;2.05;;;;;;;;;;5003147;28;100086;-72
2023/09/29 10:17:20;;;;;;;2.97;1.52;;;;;;;;;;4993068;28;101937;-71
2023/09/29 10:19:50;;;;;;;2.95;1.70;;;;;;;;;;4995013;28;100032;-71
2023/09/29 10:22:21;;;;;;;2.40;1.80;;;;;;;;;;4991247;28;100871;-70
2023/09/29 10:24:47;;;;;;;3.53;1.70;;;;;;;;;;4988244;28;100553;-69
2023/09/29 10:27:27;;;;;;;3.90;1.50;;;;;;;;;;4990882;28;98980;-69
2023/09/29 10:30:13;;;;;;;1.75;1.60;;;;;;;;;;4996684;28;100493;-71
2023/09/29 10:32:40;;;;;;;1.52;1.42;;;;;;;;;;4992062;28;99792;-71
2023/09/29 10:35:11;;;;;;;1.52;1.42;;;;;;;;;;4992905;28;99945;-71
2023/09/29 10:37:41;;;;;;;2.97;1.80;;;;;;;;;;4998807;28;100269;-72
2023/09/29 10:40:07;;;;;;;5.88;2.55;;;;;;;;;;5004384;28;100488;-71
2023/09/29 10:42:37;;;;;;;2.17;1.55;;;;;;;;;;4997167;28;99815;-71
2023/09/29 10:45:06;;;;;;;2.70;1.67;;;;;;;;;;4990065;28;100605;-71
2023/09/29 10:47:33;;;;;;;3.30;1.40;;;;;;;;;;4991413;28;100829;-70
2023/09/29 10:50:03;;;;;;;3.13;1.25;;;;;;;;;;4992747;28;102225;-72
2023/09/29 10:52:32;;;;;;;2.10;1.15;;;;;;;;;;4986684;28;100170;-70
2023/09/29 10:55:04;;;;;;;1.53;1.43;;;;;;;;;;4991508;28;101210;-71
2023/09/29 10:57:30;;;;;;;3.63;1.88;;;;;;;;;;4989752;28;100159;-72
2023/09/29 11:00:00;;;;;;;2.15;1.63;;;;;;;;;;4990680;28;100497;-72
2023/09/29 11:02:30;;;;;;;3.70;1.27;;;;;;;;;;4991804;27;100200;-72
2023/09/29 11:04:57;;;;;;;2.58;1.45;;;;;;;;;;4993268;27;98582;-72
2023/09/29 11:07:29;;;;;;;5.32;1.70;;;;;;;;;;4988184;28;99930;-72
2023/09/29 11:09:59;;;;;;;4.38;1.80;;;;;;;;;;4987690;28;100158;-72
2023/09/29 11:12:28;;;;;;;2.85;1.90;;;;;;;;;;4988269;28;100200;-71
2023/09/29 11:15:06;;;;;;;4.35;2.55;;;;;;;;;;4998735;28;99119;-71
2023/09/29 11:17:41;;;;;;;3.30;2.15;;;;;;;;;;4987751;28;100540;-71
2023/09/29 11:20:14;;;;;;;4.07;1.88;;;;;;;;;;4987900;28;100312;-70
2023/09/29 11:22:42;;;;;;;2.80;1.98;;;;;;;;;;4993090;28;100307;-71
2023/09/29 11:25:19;;;;;;;2.65;2.00;;;;;;;;;;4998432;28;100057;-71
2023/09/29 11:27:50;;;;;;;2.85;1.88;;;;;;;;;;4999284;28;100476;-71
2023/09/29 11:30:16;;;;;;;3.28;1.67;;;;;;;;;;4994511;28;99342;-72
2023/09/29 11:32:43;;;;;;;2.47;1.83;;;;;;;;;;4996895;28;100141;-70
2023/09/29 11:35:13;;;;;;;1.65;1.50;;;;;;;;;;4995892;28;100758;-72
2023/09/29 11:37:41;;;;;;;2.05;1.95;;;;;;;;;;4999462;28;101327;-71
2023/09/29 11:40:12;;;;;;;3.90;2.40;;;;;;;;;;4995083;28;100070;-72
2023/09/29 11:42:39;;;;;;;3.17;1.88;;;;;;;;;;5002558;28;100299;-72
2023/09/29 11:45:08;;;;;;;1.63;1.30;;;;;;;;;;5004658;28;100064;-71
2023/09/29 11:47:37;;;;;;;1.23;1.13;;;;;;;;;;5000827;28;100459;-71
2023/09/29 11:50:09;;;;;;;2.17;1.50;;;;;;;;;;5006540;28;99849;-71
2023/09/29 11:52:39;;;;;;;3.13;1.63;;;;;;;;;;5006429;28;99849;-71
2023/09/29 11:55:08;;;;;;;5.35;1.50;;;;;;;;;;5007727;28;100129;-70
2023/09/29 11:57:37;;;;;;;2.53;1.35;;;;;;;;;;5005919;28;99589;-72
2023/09/29 12:00:08;;;;;;;3.50;1.50;;;;;;;;;;5010292;28;99550;-72
2023/09/29 12:02:35;;;;;;;2.30;1.15;;;;;;;;;;5003756;28;100015;-70
2023/09/29 12:05:02;;;;;;;1.10;0.93;;;;;;;;;;5006517;28;100550;-71
2023/09/29 12:07:29;;;;;;;2.47;1.17;;;;;;;;;;5006637;28;99923;-71
2023/09/29 12:09:56;;;;;;;1.67;0.80;;;;;;;;;;5006868;28;99875;-71
2023/09/29 12:12:23;;;;;;;2.13;0.93;;;;;;;;;;5005771;28;100212;-70
2023/09/29 12:14:51;;;;;;;0.90;0.63;;;;;;;;;;5007313;28;99040;-70
2023/09/29 12:17:17;;;;;;;1.33;0.70;;;;;;;;;;5000343;28;99176;-71
2023/09/29 12:19:44;;;;;;;1.13;0.88;;;;;;;;;;5006967;28;100534;-70
2023/09/29 12:22:10;;;;;;;1.50;1.05;;;;;;;;;;5009650;28;99220;-70
2023/09/29 12:24:38;;;;;;;1.27;1.00;;;;;;;;;;5007511;28;100160;-71
2023/09/29 12:27:05;;;;;;;1.83;0.70;;;;;;;;;;5005718;28;99949;-70
2023/09/29 12:29:32;;;;;;;5.90;0.80;;;;;;;;;;5006829;28;100734;-71
2023/09/29 12:31:59;;;;;;;0.82;0.80;;;;;;;;;;5005800;28;99918;-70
2023/09/29 12:34:28;;;;;;;3.85;1.13;;;;;;;;;;5006397;28;99573;-70
2023/09/29 12:36:55;;;;;;;1.45;0.82;;;;;;;;;;5005506;28;99261;-70
2023/09/29 12:39:21;;;;;;;3.97;1.05;;;;;;;;;;5004942;28;99499;-71
2023/09/29 12:41:48;;;;;;;4.43;1.02;;;;;;;;;;5009711;28;100817;-69
2023/09/29 12:44:15;;;;;;;7.68;1.30;;;;;;;;;;5006631;28;99740;-70
2023/09/29 12:46:42;;;;;;;1.40;0.80;;;;;;;;;;5005146;28;100703;-70
2023/09/29 12:49:08;;;;;;;4.38;1.20;;;;;;;;;;5006137;28;99134;-70
2023/09/29 12:51:35;;;;;;;4.22;1.42;;;;;;;;;;5005462;28;101659;-72
2023/09/29 12:54:18;;;;;;;2.58;0.98;;;;;;;;;;5004988;28;99127;-71
2023/09/29 12:56:45;;;;;;;3.22;1.35;;;;;;;;;;5006202;28;99860;-71
2023/09/29 12:59:17;;;;;;;1.83;0.90;;;;;;;;;;5006084;28;100279;-70
2023/09/29 13:01:44;;;;;;;5.30;1.00;;;;;;;;;;5005757;28;98942;-70
2023/09/29 13:04:10;;;;;;;3.28;1.17;;;;;;;;;;5009283;28;100396;-70
2023/09/29 13:06:37;;;;;;;3.25;1.25;;;;;;;;;;5004953;28;99935;-70
2023/09/29 13:09:03;;;;;;;1.45;1.00;;;;;;;;;;5006385;28;99903;-70
2023/09/29 13:11:30;;;;;;;6.93;1.42;;;;;;;;;;4997931;28;98521;-70
2023/09/29 13:13:57;;;;;;;6.10;1.70;;;;;;;;;;5005047;28;100440;-70
2023/09/29 13:16:23;;;;;;;2.70;1.35;;;;;;;;;;5002435;28;99536;-70
2023/09/29 13:18:51;;;;;;;6.32;1.55;;;;;;;;;;5005932;28;100042;-70
2023/09/29 13:21:18;;;;;;;4.40;1.95;;;;;;;;;;5004264;28;98982;-70
2023/09/29 13:23:45;;;;;;;2.70;1.52;;;;;;;;;;5006562;28;98941;-70
2023/09/29 13:26:11;;;;;;;6.47;1.80;;;;;;;;;;5009181;28;99319;-71
2023/09/29 13:28:38;;;;;;;8.63;2.85;;;;;;;;;;5005397;28;100138;-71
2023/09/29 13:31:05;;;;;;;3.65;1.63;;;;;;;;;;5005772;28;100298;-70
2023/09/29 13:33:31;;;;;;;5.57;2.85;;;;;;;;;;5005697;28;100198;-70
2023/09/29 13:35:58;;;;;;;4.35;1.27;;;;;;;;;;5004953;28;99445;-69
2023/09/29 13:38:25;;;;;;;11.90;2.03;;;;;;;;;;5004973;28;99232;-70
2023/09/29 13:40:52;;;;;;;4.45;1.70;;;;;;;;;;5004913;28;99335;-70
2023/09/29 13:43:19;;;;;;;8.30;1.98;;;;;;;;;;5003857;28;100163;-71
2023/09/29 13:45:46;;;;;;;4.63;1.73;;;;;;;;;;5005775;28;102265;-71
2023/09/29 13:48:12;;;;;;;9.02;2.10;;;;;;;;;;5008186;28;100968;-71
2023/09/29 13:50:39;;;;;;;5.35;1.95;;;;;;;;;;5004690;28;100115;-71
2023/09/29 13:53:06;;;;;;;6.95;2.25;;;;;;;;;;5005404;28;98886;-71
2023/09/29 13:55:32;;;;;;;5.45;1.92;;;;;;;;;;5005121;28;99633;-71
2023/09/29 13:57:58;;;;;;;10.25;2.30;;;;;;;;;;5005074;28;99721;-71
2023/09/29 14:00:25;;;;;;;7.80;2.72;;;;;;;;;;5005074;28;99275;-72
2023/09/29 14:02:52;;;;;;;5.05;1.75;;;;;;;;;;5004068;28;100463;-71
2023/09/29 14:05:21;;;;;;;28.98;3.67;;;;;;;;;;5004439;28;101011;-70
2023/09/29 14:07:48;;;;;;;11.52;3.13;;;;;;;;;;5005092;28;99879;-71
2023/09/29 14:10:16;;;;;;;9.20;2.80;;;;;;;;;;5007528;28;98932;-70
2023/09/29 14:12:44;;;;;;;9.73;3.30;;;;;;;;;;5004809;28;100170;-72
2023/09/29 14:15:10;;;;;;;5.53;2.38;;;;;;;;;;5004444;28;100612;-71
2023/09/29 14:17:37;;;;;;;12.77;2.70;;;;;;;;;;5004765;28;101105;-71
2023/09/29 14:20:05;;;;;;;11.55;2.67;;;;;;;;;;5005816;28;98662;-71
2023/09/29 14:22:32;;;;;;;10.38;2.60;;;;;;;;;;5006299;28;100184;-72
2023/09/29 14:24:58;;;;;;;6.68;1.90;;;;;;;;;;5004690;28;99461;-72
2023/09/29 14:27:25;;;;;;;11.88;2.22;;;;;;;;;;5004510;28;99023;-70
2023/09/29 14:29:51;;;;;;;10.23;2.50;;;;;;;;;;5004192;28;99949;-71
2023/09/29 14:32:18;;;;;;;9.32;2.85;;;;;;;;;;5007216;28;100176;-70
2023/09/29 14:34:44;;;;;;;6.72;2.80;;;;;;;;;;5004184;28;99857;-70
2023/09/29 14:37:11;;;;;;;7.72;3.17;;;;;;;;;;5005029;28;99481;-71